createdAt,value
2024-03-10T00:00:22.726Z,95.51
2024-03-10T00:01:25.471Z,95.12
2024-03-10T00:02:27.312Z,95.27
2024-03-10T00:03:28.962Z,95.59
2024-03-10T00:04:30.564Z,95.75
2024-03-10T00:05:32.310Z,95.46
2024-03-10T00:06:33.910Z,95.17
2024-03-10T00:07:35.757Z,95.34
2024-03-10T00:08:37.424Z,94.94
2024-03-10T00:09:39.015Z,95.44
2024-03-10T00:10:42.521Z,95.64
2024-03-10T00:11:45.097Z,95.04
2024-03-10T00:12:49.340Z,95.29
2024-03-10T00:13:51.241Z,95.38
2024-03-10T00:14:52.899Z,94.93
2024-03-10T00:15:54.480Z,95.00
2024-03-10T00:16:56.582Z,95.01
2024-03-10T00:17:58.278Z,95.35
2024-03-10T00:18:59.891Z,95.29
2024-03-10T00:20:01.511Z,95.66
2024-03-10T00:21:04.154Z,94.74
2024-03-10T00:22:05.749Z,95.39
2024-03-10T00:23:07.473Z,95.19
2024-03-10T00:24:09.233Z,95.30
2024-03-10T00:25:10.886Z,95.33
2024-03-10T00:26:12.586Z,95.64
2024-03-10T00:27:14.184Z,95.57
2024-03-10T00:28:15.772Z,95.79
2024-03-10T00:29:17.413Z,95.65
2024-03-10T00:30:19.672Z,94.95
2024-03-10T00:31:21.432Z,95.74
2024-03-10T00:32:25.328Z,95.46
2024-03-10T00:33:27.365Z,96.17
2024-03-10T00:34:28.997Z,96.33
2024-03-10T00:35:30.708Z,95.87
2024-03-10T00:36:32.491Z,96.17
2024-03-10T00:37:34.694Z,95.86
2024-03-10T00:38:36.330Z,95.64
2024-03-10T00:39:37.981Z,95.32
2024-03-10T00:40:39.934Z,95.69
2024-03-10T00:41:41.551Z,95.21
2024-03-10T00:42:43.411Z,95.35
2024-03-10T00:43:45.036Z,95.17
2024-03-10T00:44:46.661Z,95.57
2024-03-10T00:45:50.907Z,95.66
2024-03-10T00:46:52.685Z,96.20
2024-03-10T00:47:56.021Z,95.37
2024-03-10T00:48:57.724Z,95.68
2024-03-10T00:49:59.471Z,95.21
2024-03-10T00:51:01.882Z,95.56
2024-03-10T00:52:03.521Z,96.24
2024-03-10T00:53:05.141Z,95.59
2024-03-10T00:54:06.813Z,95.96
2024-03-10T00:55:08.894Z,96.66
2024-03-10T00:56:10.844Z,94.98
2024-03-10T00:57:12.560Z,94.70
2024-03-10T00:58:14.545Z,95.61
2024-03-10T00:59:17.364Z,95.16
2024-03-10T01:00:19.137Z,95.21
2024-03-10T01:01:21.014Z,95.28
2024-03-10T01:02:24.505Z,95.44
2024-03-10T01:03:26.166Z,95.95
2024-03-10T01:04:29.235Z,95.97
2024-03-10T01:05:31.792Z,96.14
2024-03-10T01:06:33.440Z,96.08
2024-03-10T01:07:35.725Z,96.10
2024-03-10T01:08:37.339Z,96.29
2024-03-10T01:09:39.000Z,96.73
2024-03-10T01:10:40.842Z,96.07
2024-03-10T01:11:44.184Z,96.60
2024-03-10T01:12:45.945Z,96.47
2024-03-10T01:13:48.188Z,96.41
2024-03-10T01:14:49.920Z,96.67
2024-03-10T01:15:51.517Z,96.27
2024-03-10T01:16:53.340Z,96.68
2024-03-10T01:17:55.070Z,96.61
2024-03-10T01:18:56.708Z,97.28
2024-03-10T01:19:59.236Z,96.85
2024-03-10T01:21:00.857Z,97.21
2024-03-10T01:22:02.480Z,98.05
2024-03-10T01:23:04.476Z,97.10
2024-03-10T01:24:08.131Z,97.48
2024-03-10T01:25:10.482Z,97.39
2024-03-10T01:26:12.102Z,96.93
2024-03-10T01:27:13.776Z,97.27
2024-03-10T01:28:16.022Z,96.45
2024-03-10T01:29:18.138Z,97.08
2024-03-10T01:30:21.891Z,96.96
2024-03-10T01:31:23.617Z,97.12
2024-03-10T01:32:25.354Z,97.12
2024-03-10T01:33:27.424Z,96.89
2024-03-10T01:34:29.072Z,97.62
2024-03-10T01:35:30.806Z,98.04
2024-03-10T01:36:32.537Z,98.20
2024-03-10T01:37:34.909Z,98.10
2024-03-10T01:38:36.573Z,97.96
2024-03-10T01:39:38.190Z,98.75
2024-03-10T01:40:39.849Z,98.77
2024-03-10T01:41:41.436Z,97.83
2024-03-10T01:42:43.183Z,98.29
2024-03-10T01:43:48.740Z,98.00
2024-03-10T01:44:50.739Z,98.04
2024-03-10T01:46:03.780Z,98.65
2024-03-10T01:47:05.451Z,98.59
2024-03-10T01:48:08.857Z,99.47
2024-03-10T01:49:10.844Z,99.43
2024-03-10T01:50:13.490Z,99.51
2024-03-10T01:51:15.558Z,99.35
2024-03-10T01:52:18.528Z,99.45
2024-03-10T01:53:21.512Z,99.20
2024-03-10T01:54:29.324Z,99.63
2024-03-10T01:55:31.491Z,99.34
2024-03-10T01:56:34.020Z,100.00
2024-03-10T01:57:36.649Z,99.84
2024-03-10T01:58:39.036Z,99.80
2024-03-10T01:59:41.010Z,99.51
2024-03-10T02:00:45.952Z,99.63
2024-03-10T02:01:49.486Z,100.00
2024-03-10T02:02:51.121Z,99.26
2024-03-10T02:03:52.723Z,99.25
2024-03-10T02:04:54.384Z,99.36
2024-03-10T02:05:56.336Z,100.00
2024-03-10T02:06:58.118Z,100.00
2024-03-10T02:08:00.413Z,100.00
2024-03-10T02:09:04.127Z,99.71
2024-03-10T02:10:07.956Z,100.00
2024-03-10T02:11:12.089Z,100.00
2024-03-10T02:12:14.004Z,100.00
2024-03-10T02:13:16.951Z,100.00
2024-03-10T02:14:18.563Z,100.00
2024-03-10T02:15:23.035Z,100.00
2024-03-10T02:16:24.736Z,100.00
2024-03-10T02:17:26.547Z,100.00
2024-03-10T02:18:29.230Z,100.00
2024-03-10T02:19:33.830Z,100.00
2024-03-10T02:20:38.998Z,100.00
2024-03-10T02:21:40.603Z,100.00
2024-03-10T02:22:43.768Z,100.00
2024-03-10T02:24:06.538Z,100.00
2024-03-10T02:25:10.813Z,100.00
2024-03-10T02:26:16.348Z,100.00
2024-03-10T02:27:18.535Z,100.00
2024-03-10T02:28:35.139Z,100.00
2024-03-10T02:29:57.124Z,100.00
2024-03-10T02:30:59.049Z,99.77
2024-03-10T02:32:19.433Z,100.00
2024-03-10T02:33:39.878Z,99.83
2024-03-10T02:35:00.228Z,99.90
2024-03-10T02:36:20.607Z,100.00
2024-03-10T02:37:41.424Z,100.00
2024-03-10T02:39:01.812Z,100.00
2024-03-10T02:40:22.744Z,100.00
2024-03-10T02:41:43.142Z,100.00
2024-03-10T02:43:03.452Z,100.00
2024-03-10T02:44:23.756Z,100.00
2024-03-10T02:45:43.979Z,100.00
2024-03-10T02:47:04.431Z,100.00
2024-03-10T02:48:08.169Z,100.00
2024-03-10T02:49:10.061Z,100.00
2024-03-10T02:50:11.725Z,100.00
2024-03-10T02:51:13.632Z,100.00
2024-03-10T02:52:15.283Z,100.00
2024-03-10T02:53:16.992Z,100.00
2024-03-10T02:54:18.783Z,100.00
2024-03-10T02:55:20.456Z,100.00
2024-03-10T02:56:23.974Z,100.00
2024-03-10T02:57:25.640Z,100.00
2024-03-10T02:58:27.284Z,100.00
2024-03-10T02:59:30.862Z,100.00
2024-03-10T03:00:33.093Z,100.00
2024-03-10T03:01:40.646Z,100.00
2024-03-10T03:02:42.301Z,100.00
2024-03-10T03:03:43.931Z,100.00
2024-03-10T03:04:46.514Z,100.00
2024-03-10T03:05:49.003Z,100.00
2024-03-10T03:06:50.598Z,100.00
2024-03-10T03:07:52.223Z,100.00
2024-03-10T03:08:55.485Z,100.00
2024-03-10T03:09:57.084Z,100.00
2024-03-10T03:10:58.726Z,100.00
2024-03-10T03:12:00.395Z,100.00
2024-03-10T03:13:02.016Z,100.00
2024-03-10T03:14:03.614Z,100.00
2024-03-10T03:15:05.928Z,100.00
2024-03-10T03:16:07.536Z,100.00
2024-03-10T03:17:09.389Z,100.00
2024-03-10T03:18:11.084Z,100.00
2024-03-10T03:19:14.199Z,100.00
2024-03-10T03:20:21.988Z,100.00
2024-03-10T03:21:24.826Z,100.00
2024-03-10T03:22:27.010Z,100.00
2024-03-10T03:23:28.673Z,100.00
2024-03-10T03:24:30.381Z,100.00
2024-03-10T03:25:32.169Z,100.00
2024-03-10T03:26:33.795Z,100.00
2024-03-10T03:27:36.936Z,100.00
2024-03-10T03:28:38.534Z,100.00
2024-03-10T03:29:40.153Z,100.00
2024-03-10T03:30:43.402Z,100.00
2024-03-10T03:31:45.142Z,100.00
2024-03-10T03:32:47.190Z,100.00
2024-03-10T03:33:48.948Z,100.00
2024-03-10T03:34:50.537Z,100.00
2024-03-10T03:35:52.242Z,100.00
2024-03-10T03:36:54.024Z,100.00
2024-03-10T03:37:56.672Z,100.00
2024-03-10T03:38:59.640Z,100.00
2024-03-10T03:40:01.273Z,100.00
2024-03-10T03:41:02.910Z,100.00
2024-03-10T03:42:04.565Z,100.00
2024-03-10T03:43:06.652Z,100.00
2024-03-10T03:44:08.407Z,100.00
2024-03-10T03:45:10.476Z,100.00
2024-03-10T03:46:12.082Z,100.00
2024-03-10T03:47:13.855Z,100.00
2024-03-10T03:48:18.519Z,100.00
2024-03-10T03:49:21.302Z,100.00
2024-03-10T03:50:23.478Z,100.00
2024-03-10T03:51:25.169Z,100.00
2024-03-10T03:52:26.785Z,100.00
2024-03-10T03:53:28.473Z,100.00
2024-03-10T03:54:32.717Z,100.00
2024-03-10T03:55:34.581Z,100.00
2024-03-10T03:56:36.184Z,100.00
2024-03-10T03:57:37.808Z,100.00
2024-03-10T03:58:39.404Z,100.00
2024-03-10T03:59:41.006Z,100.00
2024-03-10T04:00:44.255Z,100.00
2024-03-10T04:01:46.140Z,100.00
2024-03-10T04:02:47.998Z,100.00
2024-03-10T04:03:49.657Z,100.00
2024-03-10T04:04:51.249Z,100.00
2024-03-10T04:05:53.856Z,100.00
2024-03-10T04:06:55.461Z,100.00
2024-03-10T04:07:57.365Z,100.00
2024-03-10T04:08:59.144Z,100.00
2024-03-10T04:10:00.807Z,100.00
2024-03-10T04:11:02.780Z,100.00
2024-03-10T04:12:05.005Z,100.00
2024-03-10T04:13:07.160Z,100.00
2024-03-10T04:14:09.081Z,100.00
2024-03-10T04:15:10.758Z,100.00
2024-03-10T04:16:12.350Z,100.00
2024-03-10T04:17:14.054Z,100.00
2024-03-10T04:18:15.793Z,100.00
2024-03-10T04:19:17.949Z,100.00
2024-03-10T04:20:19.682Z,100.00
2024-03-10T04:21:21.372Z,100.00
2024-03-10T04:22:24.174Z,100.00
2024-03-10T04:23:26.052Z,100.00
2024-03-10T04:24:27.722Z,100.00
2024-03-10T04:25:30.636Z,100.00
2024-03-10T04:26:32.730Z,100.00
2024-03-10T04:27:35.224Z,100.00
2024-03-10T04:28:37.233Z,100.00
2024-03-10T04:29:38.962Z,100.00
2024-03-10T04:30:40.635Z,100.00
2024-03-10T04:31:42.405Z,100.00
2024-03-10T04:32:44.147Z,100.00
2024-03-10T04:33:45.795Z,100.00
2024-03-10T04:34:47.747Z,100.00
2024-03-10T04:35:49.476Z,100.00
2024-03-10T04:36:51.510Z,100.00
2024-03-10T04:37:54.834Z,100.00
2024-03-10T04:39:00.770Z,100.00
2024-03-10T04:40:02.422Z,100.00
2024-03-10T04:41:06.161Z,100.00
2024-03-10T04:42:08.396Z,100.00
2024-03-10T04:43:10.867Z,100.00
2024-03-10T04:44:12.569Z,100.00
2024-03-10T04:45:14.737Z,100.00
2024-03-10T04:46:16.343Z,100.00
2024-03-10T04:47:18.285Z,100.00
2024-03-10T04:48:20.446Z,100.00
2024-03-10T04:49:22.073Z,100.00
2024-03-10T04:50:23.694Z,100.00
2024-03-10T04:51:28.159Z,100.00
2024-03-10T04:52:29.758Z,100.00
2024-03-10T04:53:31.434Z,100.00
2024-03-10T04:54:33.065Z,100.00
2024-03-10T04:55:34.669Z,100.00
2024-03-10T04:56:36.562Z,100.00
2024-03-10T04:57:38.265Z,100.00
2024-03-10T04:58:42.766Z,100.00
2024-03-10T04:59:45.255Z,100.00
2024-03-10T05:00:46.881Z,100.00
2024-03-10T05:01:48.566Z,100.00
2024-03-10T05:02:50.196Z,100.00
2024-03-10T05:03:51.810Z,100.00
2024-03-10T05:04:53.482Z,100.00
2024-03-10T05:05:55.123Z,100.00
2024-03-10T05:06:56.810Z,100.00
2024-03-10T05:07:58.551Z,100.00
2024-03-10T05:09:00.260Z,100.00
2024-03-10T05:10:01.899Z,100.00
2024-03-10T05:11:05.004Z,100.00
2024-03-10T05:12:09.935Z,100.00
2024-03-10T05:13:11.940Z,100.00
2024-03-10T05:14:14.306Z,100.00
2024-03-10T05:15:16.736Z,100.00
2024-03-10T05:16:18.538Z,100.00
2024-03-10T05:17:20.331Z,100.00
2024-03-10T05:18:22.062Z,100.00
2024-03-10T05:19:23.699Z,100.00
2024-03-10T05:20:25.913Z,100.00
2024-03-10T05:21:27.708Z,100.00
2024-03-10T05:22:29.420Z,100.00
2024-03-10T05:23:31.163Z,100.00
2024-03-10T05:24:32.804Z,100.00
2024-03-10T05:25:34.840Z,100.00
2024-03-10T05:26:36.510Z,100.00
2024-03-10T05:27:40.005Z,100.00
2024-03-10T05:28:41.606Z,100.00
2024-03-10T05:29:43.414Z,100.00
2024-03-10T05:30:45.896Z,100.00
2024-03-10T05:31:47.536Z,100.00
2024-03-10T05:32:50.530Z,100.00
2024-03-10T05:33:52.179Z,100.00
2024-03-10T05:34:57.845Z,100.00
2024-03-10T05:35:59.786Z,100.00
2024-03-10T05:37:01.930Z,100.00
2024-03-10T05:38:03.864Z,100.00
2024-03-10T05:39:06.348Z,100.00
2024-03-10T05:40:11.193Z,100.00
2024-03-10T05:41:13.590Z,100.00
2024-03-10T05:42:15.625Z,100.00
2024-03-10T05:43:17.207Z,100.00
2024-03-10T05:44:18.910Z,100.00
2024-03-10T05:45:20.689Z,100.00
2024-03-10T05:46:22.284Z,100.00
2024-03-10T05:47:28.170Z,100.00
2024-03-10T05:48:29.986Z,100.00
2024-03-10T05:49:31.665Z,100.00
2024-03-10T05:50:34.009Z,100.00
2024-03-10T05:51:35.728Z,100.00
2024-03-10T05:52:37.351Z,100.00
2024-03-10T05:53:39.674Z,100.00
2024-03-10T05:54:41.266Z,100.00
2024-03-10T05:55:42.850Z,100.00
2024-03-10T05:56:45.022Z,100.00
2024-03-10T05:57:46.642Z,100.00
2024-03-10T05:58:50.192Z,100.00
2024-03-10T05:59:51.821Z,100.00
2024-03-10T06:00:53.545Z,100.00
2024-03-10T06:01:55.793Z,100.00
2024-03-10T06:02:57.444Z,100.00
2024-03-10T06:03:59.060Z,100.00
2024-03-10T06:05:00.715Z,100.00
2024-03-10T06:06:03.023Z,100.00
2024-03-10T06:07:05.105Z,100.00
2024-03-10T06:08:09.132Z,100.00
2024-03-10T06:09:11.562Z,100.00
2024-03-10T06:10:13.322Z,100.00
2024-03-10T06:11:15.107Z,100.00
2024-03-10T06:12:16.889Z,100.00
2024-03-10T06:13:18.932Z,100.00
2024-03-10T06:14:20.544Z,100.00
2024-03-10T06:15:22.307Z,100.00
2024-03-10T06:16:25.705Z,100.00
2024-03-10T06:17:32.841Z,100.00
2024-03-10T06:18:54.617Z,100.00
2024-03-10T06:20:14.953Z,100.00
2024-03-10T06:21:35.182Z,100.00
2024-03-10T06:22:55.659Z,100.00
2024-03-10T06:24:16.302Z,100.00
2024-03-10T06:25:24.082Z,100.00
2024-03-10T06:26:25.867Z,100.00
2024-03-10T06:27:27.528Z,100.00
2024-03-10T06:28:29.146Z,100.00
2024-03-10T06:29:30.932Z,100.00
2024-03-10T06:30:32.593Z,100.00
2024-03-10T06:31:34.199Z,100.00
2024-03-10T06:32:35.894Z,100.00
2024-03-10T06:33:39.632Z,100.00
2024-03-10T06:34:41.740Z,100.00
2024-03-10T06:35:43.453Z,100.00
2024-03-10T06:36:45.141Z,100.00
2024-03-10T06:37:49.753Z,100.00
2024-03-10T06:38:51.913Z,100.00
2024-03-10T06:39:53.532Z,100.00
2024-03-10T06:40:55.160Z,100.00
2024-03-10T06:41:56.809Z,100.00
2024-03-10T06:42:58.410Z,100.00
2024-03-10T06:44:01.245Z,100.00
2024-03-10T06:45:02.850Z,100.00
2024-03-10T06:46:04.910Z,100.00
2024-03-10T06:47:06.555Z,100.00
2024-03-10T06:48:08.204Z,100.00
2024-03-10T06:49:09.801Z,100.00
2024-03-10T06:50:11.791Z,100.00
2024-03-10T06:51:13.724Z,100.00
2024-03-10T06:52:15.388Z,100.00
2024-03-10T06:53:17.032Z,100.00
2024-03-10T06:54:19.596Z,100.00
2024-03-10T06:55:21.173Z,100.00
2024-03-10T06:56:22.904Z,100.00
2024-03-10T06:57:24.626Z,100.00
2024-03-10T06:58:26.268Z,100.00
2024-03-10T06:59:30.510Z,100.00
2024-03-10T07:00:33.568Z,100.00
2024-03-10T07:01:35.162Z,100.00
2024-03-10T07:02:37.528Z,100.00
2024-03-10T07:03:40.742Z,100.00
2024-03-10T07:04:46.780Z,100.00
2024-03-10T07:05:48.581Z,100.00
2024-03-10T07:06:51.314Z,100.00
2024-03-10T07:07:53.633Z,100.00
2024-03-10T07:08:56.005Z,100.00
2024-03-10T07:09:57.589Z,100.00
2024-03-10T07:10:59.974Z,100.00
2024-03-10T07:12:04.697Z,100.00
2024-03-10T07:13:06.500Z,100.00
2024-03-10T07:14:08.116Z,100.00
2024-03-10T07:15:13.393Z,100.00
2024-03-10T07:16:15.012Z,100.00
2024-03-10T07:17:16.955Z,100.00
2024-03-10T07:18:18.797Z,100.00
2024-03-10T07:19:20.407Z,100.00
2024-03-10T07:20:22.540Z,100.00
2024-03-10T07:21:24.280Z,100.00
2024-03-10T07:22:25.896Z,100.00
2024-03-10T07:23:27.647Z,100.00
2024-03-10T07:24:29.333Z,100.00
2024-03-10T07:25:35.110Z,100.00
2024-03-10T07:26:38.461Z,100.00
2024-03-10T07:27:40.763Z,100.00
2024-03-10T07:28:42.428Z,100.00
2024-03-10T07:29:45.880Z,100.00
2024-03-10T07:30:47.565Z,100.00
2024-03-10T07:31:49.260Z,100.00
2024-03-10T07:32:51.014Z,100.00
2024-03-10T07:33:52.742Z,100.00
2024-03-10T07:34:54.366Z,100.00
2024-03-10T07:35:57.064Z,100.00
2024-03-10T07:36:58.693Z,100.00
2024-03-10T07:38:00.703Z,100.00
2024-03-10T07:39:02.334Z,100.00
2024-03-10T07:40:08.229Z,100.00
2024-03-10T07:41:10.791Z,100.00
2024-03-10T07:42:12.400Z,100.00
2024-03-10T07:43:13.984Z,100.00
2024-03-10T07:44:17.058Z,100.00
2024-03-10T07:45:19.056Z,100.00
2024-03-10T07:46:20.761Z,100.00
2024-03-10T07:47:22.542Z,100.00
2024-03-10T07:48:24.793Z,100.00
2024-03-10T07:49:26.476Z,100.00
2024-03-10T07:50:28.724Z,100.00
2024-03-10T07:51:31.940Z,100.00
2024-03-10T07:52:33.846Z,100.00
2024-03-10T07:53:35.497Z,100.00
2024-03-10T07:54:37.495Z,100.00
2024-03-10T07:55:39.092Z,100.00
2024-03-10T07:56:40.999Z,100.00
2024-03-10T07:57:42.760Z,99.90
2024-03-10T07:58:44.340Z,99.51
2024-03-10T07:59:45.916Z,99.22
2024-03-10T08:00:47.883Z,98.73
2024-03-10T08:01:52.960Z,98.16
2024-03-10T08:02:57.278Z,98.49
2024-03-10T08:03:59.317Z,97.98
2024-03-10T08:05:00.991Z,97.81
2024-03-10T08:06:02.659Z,97.81
2024-03-10T08:07:05.122Z,98.05
2024-03-10T08:08:06.903Z,97.53
2024-03-10T08:09:08.558Z,96.71
2024-03-10T08:10:13.729Z,96.59
2024-03-10T08:11:15.397Z,96.73
2024-03-10T08:12:17.882Z,96.55
2024-03-10T08:13:19.603Z,96.62
2024-03-10T08:14:22.553Z,96.55
2024-03-10T08:15:24.315Z,95.47
2024-03-10T08:16:26.265Z,95.36
2024-03-10T08:17:28.044Z,95.81
2024-03-10T08:18:30.089Z,95.82
2024-03-10T08:19:31.731Z,95.46
2024-03-10T08:20:33.469Z,95.14
2024-03-10T08:21:35.112Z,95.35
2024-03-10T08:22:37.196Z,95.07
2024-03-10T08:23:38.861Z,94.95
2024-03-10T08:24:40.484Z,94.99
2024-03-10T08:25:43.746Z,94.35
2024-03-10T08:26:45.369Z,93.82
2024-03-10T08:27:50.848Z,93.73
2024-03-10T08:28:52.492Z,93.77
2024-03-10T08:29:54.600Z,93.60
2024-03-10T08:30:56.192Z,93.58
2024-03-10T08:31:57.797Z,93.88
2024-03-10T08:33:00.318Z,93.22
2024-03-10T08:34:01.986Z,93.35
2024-03-10T08:35:11.584Z,92.87
2024-03-10T08:36:15.714Z,92.32
2024-03-10T08:37:20.531Z,92.34
2024-03-10T08:38:22.248Z,91.55
2024-03-10T08:39:25.889Z,92.04
2024-03-10T08:40:27.808Z,91.75
2024-03-10T08:41:29.995Z,92.00
2024-03-10T08:42:32.596Z,92.57
2024-03-10T08:43:34.582Z,91.96
2024-03-10T08:44:36.226Z,91.36
2024-03-10T08:45:38.255Z,91.76
2024-03-10T08:46:40.736Z,91.43
2024-03-10T08:47:44.247Z,92.14
2024-03-10T08:48:46.002Z,90.65
2024-03-10T08:49:47.842Z,90.75
2024-03-10T08:50:50.956Z,90.69
2024-03-10T08:51:52.564Z,90.72
2024-03-10T08:52:54.200Z,90.41
2024-03-10T08:53:55.893Z,89.52
2024-03-10T08:54:57.501Z,88.80
2024-03-10T08:55:59.163Z,88.82
2024-03-10T08:57:00.932Z,88.98
2024-03-10T08:58:04.565Z,88.52
2024-03-10T08:59:06.324Z,88.77
2024-03-10T09:00:09.624Z,88.31
2024-03-10T09:01:11.369Z,87.53
2024-03-10T09:02:13.014Z,87.90
2024-03-10T09:03:14.664Z,88.11
2024-03-10T09:04:18.008Z,87.61
2024-03-10T09:05:20.948Z,87.58
2024-03-10T09:06:25.601Z,86.74
2024-03-10T09:07:28.087Z,86.96
2024-03-10T09:08:29.791Z,87.44
2024-03-10T09:09:31.445Z,87.28
2024-03-10T09:10:40.025Z,87.42
2024-03-10T09:11:50.924Z,86.61
2024-03-10T09:12:53.201Z,86.80
2024-03-10T09:13:56.172Z,86.61
2024-03-10T09:15:00.365Z,86.61
2024-03-10T09:16:02.358Z,87.23
2024-03-10T09:17:05.003Z,87.54
2024-03-10T09:18:07.174Z,87.56
2024-03-10T09:19:08.908Z,86.19
2024-03-10T09:20:13.797Z,86.73
2024-03-10T09:21:15.458Z,87.16
2024-03-10T09:22:17.369Z,87.06
2024-03-10T09:23:19.339Z,87.10
2024-03-10T09:24:21.334Z,86.29
2024-03-10T09:25:24.149Z,86.54
2024-03-10T09:26:26.615Z,85.80
2024-03-10T09:27:28.230Z,85.18
2024-03-10T09:28:30.076Z,85.96
2024-03-10T09:29:32.377Z,85.50
2024-03-10T09:30:34.068Z,85.71
2024-03-10T09:31:35.881Z,85.08
2024-03-10T09:32:37.487Z,85.64
2024-03-10T09:33:39.262Z,85.25
2024-03-10T09:34:41.493Z,86.13
2024-03-10T09:35:44.112Z,84.96
2024-03-10T09:36:45.730Z,85.64
2024-03-10T09:37:48.420Z,84.55
2024-03-10T09:38:52.056Z,85.18
2024-03-10T09:39:53.817Z,85.28
2024-03-10T09:40:57.148Z,85.02
2024-03-10T09:42:05.309Z,84.17
2024-03-10T09:43:12.976Z,84.49
2024-03-10T09:44:19.362Z,83.89
2024-03-10T09:45:22.410Z,83.03
2024-03-10T09:46:24.489Z,83.17
2024-03-10T09:47:27.296Z,83.99
2024-03-10T09:48:28.989Z,84.24
2024-03-10T09:49:31.361Z,83.78
2024-03-10T09:50:33.442Z,83.79
2024-03-10T09:51:36.968Z,84.71
2024-03-10T09:52:39.209Z,84.64
2024-03-10T09:53:45.248Z,83.65
2024-03-10T09:54:46.859Z,83.83
2024-03-10T09:55:53.885Z,83.60
2024-03-10T09:56:56.267Z,83.42
2024-03-10T09:58:01.065Z,83.33
2024-03-10T09:59:08.700Z,83.62
2024-03-10T10:00:15.082Z,84.31
2024-03-10T10:01:19.490Z,84.14
2024-03-10T10:02:30.571Z,84.64
2024-03-10T10:03:32.360Z,83.79
2024-03-10T10:04:41.032Z,83.67
2024-03-10T10:05:56.049Z,83.54
2024-03-10T10:06:58.795Z,82.14
2024-03-10T10:08:00.450Z,81.82
2024-03-10T10:09:08.839Z,81.94
2024-03-10T10:10:10.874Z,82.24
2024-03-10T10:11:14.826Z,82.55
2024-03-10T10:12:16.598Z,81.91
2024-03-10T10:13:25.758Z,81.73
2024-03-10T10:14:28.495Z,81.36
2024-03-10T10:15:36.370Z,81.60
2024-03-10T10:16:49.044Z,81.56
2024-03-10T10:17:56.771Z,81.82
2024-03-10T10:19:00.204Z,82.00
2024-03-10T10:20:02.041Z,81.86
2024-03-10T10:21:08.443Z,82.57
2024-03-10T10:22:10.100Z,81.92
2024-03-10T10:23:11.742Z,81.83
2024-03-10T10:24:14.976Z,81.08
2024-03-10T10:25:16.745Z,81.29
2024-03-10T10:26:18.538Z,80.90
2024-03-10T10:27:20.184Z,80.54
2024-03-10T10:28:21.833Z,79.89
2024-03-10T10:29:23.459Z,81.03
2024-03-10T10:30:28.536Z,80.13
2024-03-10T10:31:30.182Z,80.72
2024-03-10T10:32:31.854Z,80.52
2024-03-10T10:33:33.645Z,80.37
2024-03-10T10:34:36.300Z,81.13
2024-03-10T10:35:40.701Z,80.40
2024-03-10T10:36:42.770Z,80.65
2024-03-10T10:37:48.079Z,80.67
2024-03-10T10:38:50.975Z,80.69
2024-03-10T10:39:52.939Z,80.49
2024-03-10T10:40:55.752Z,79.95
2024-03-10T10:42:01.998Z,80.58
2024-03-10T10:43:07.340Z,80.74
2024-03-10T10:44:09.239Z,80.10
2024-03-10T10:45:11.747Z,80.68
2024-03-10T10:46:13.488Z,80.65
2024-03-10T10:47:16.370Z,81.23
2024-03-10T10:48:18.613Z,80.28
2024-03-10T10:49:23.038Z,80.55
2024-03-10T10:50:32.871Z,80.36
2024-03-10T10:51:35.282Z,80.70
2024-03-10T10:52:37.133Z,80.42
2024-03-10T10:53:42.473Z,80.14
2024-03-10T10:54:44.564Z,80.16
2024-03-10T10:55:46.687Z,79.15
2024-03-10T10:56:55.391Z,79.07
2024-03-10T10:57:58.604Z,80.06
2024-03-10T10:59:01.513Z,80.26
2024-03-10T11:00:15.090Z,79.87
2024-03-10T11:01:17.473Z,80.04
2024-03-10T11:02:24.574Z,80.23
2024-03-10T11:03:26.987Z,79.66
2024-03-10T11:04:30.451Z,79.89
2024-03-10T11:05:32.286Z,80.27
2024-03-10T11:06:34.284Z,79.74
2024-03-10T11:07:36.452Z,79.49
2024-03-10T11:08:42.096Z,78.94
2024-03-10T11:09:43.765Z,79.27
2024-03-10T11:10:48.223Z,79.64
2024-03-10T11:11:51.064Z,79.69
2024-03-10T11:13:08.111Z,79.78
2024-03-10T11:14:10.849Z,79.36
2024-03-10T11:15:12.670Z,78.96
2024-03-10T11:16:21.714Z,79.64
2024-03-10T11:17:24.895Z,78.80
2024-03-10T11:18:27.360Z,78.73
2024-03-10T11:19:30.804Z,77.95
2024-03-10T11:20:34.068Z,78.93
2024-03-10T11:21:36.520Z,79.34
2024-03-10T11:22:53.402Z,78.92
2024-03-10T11:23:58.895Z,78.36
2024-03-10T11:25:21.524Z,78.11
2024-03-10T11:26:28.778Z,78.42
2024-03-10T11:27:38.431Z,78.45
2024-03-10T11:28:51.478Z,78.08
2024-03-10T11:29:53.242Z,78.36
2024-03-10T11:30:58.106Z,77.43
2024-03-10T11:31:59.794Z,77.62
2024-03-10T11:33:07.156Z,78.51
2024-03-10T11:34:11.188Z,78.97
2024-03-10T11:35:15.022Z,77.85
2024-03-10T11:36:17.249Z,77.83
2024-03-10T11:37:19.332Z,77.71
2024-03-10T11:38:22.222Z,77.65
2024-03-10T11:39:24.050Z,78.33
2024-03-10T11:40:25.654Z,78.42
2024-03-10T11:41:27.301Z,79.01
2024-03-10T11:42:30.064Z,78.27
2024-03-10T11:43:31.720Z,78.67
2024-03-10T11:44:36.926Z,78.68
2024-03-10T11:45:41.568Z,78.41
2024-03-10T11:46:44.407Z,78.71
2024-03-10T11:47:46.123Z,78.62
2024-03-10T11:48:49.250Z,78.31
2024-03-10T11:49:53.969Z,77.28
2024-03-10T11:50:56.073Z,76.88
2024-03-10T11:51:58.506Z,76.41
2024-03-10T11:53:00.123Z,77.12
2024-03-10T11:54:08.426Z,76.54
2024-03-10T11:55:14.763Z,75.74
2024-03-10T11:56:18.125Z,76.22
2024-03-10T11:57:19.822Z,76.20
2024-03-10T11:58:22.288Z,76.26
2024-03-10T11:59:24.196Z,76.43
2024-03-10T12:00:27.718Z,76.43
2024-03-10T12:01:31.473Z,76.83
2024-03-10T12:02:33.229Z,77.23
2024-03-10T12:03:36.429Z,76.70
2024-03-10T12:04:40.225Z,76.58
2024-03-10T12:05:44.329Z,76.22
2024-03-10T12:06:45.951Z,75.85
2024-03-10T12:07:59.145Z,75.66
2024-03-10T12:09:13.646Z,76.47
2024-03-10T12:10:18.576Z,76.10
2024-03-10T12:11:25.032Z,75.60
2024-03-10T12:12:33.734Z,76.07
2024-03-10T12:13:41.013Z,76.10
2024-03-10T12:14:43.720Z,75.94
2024-03-10T12:15:51.434Z,75.45
2024-03-10T12:16:53.068Z,76.47
2024-03-10T12:17:55.812Z,76.76
2024-03-10T12:18:59.750Z,76.31
2024-03-10T12:20:01.907Z,75.00
2024-03-10T12:21:08.309Z,76.05
2024-03-10T12:22:14.527Z,75.61
2024-03-10T12:23:16.385Z,75.33
2024-03-10T12:24:19.112Z,76.24
2024-03-10T12:25:21.087Z,76.49
2024-03-10T12:26:23.737Z,76.30
2024-03-10T12:27:25.385Z,76.57
2024-03-10T12:28:27.141Z,77.14
2024-03-10T12:29:28.767Z,76.21
2024-03-10T12:30:30.415Z,75.88
2024-03-10T12:31:37.248Z,76.19
2024-03-10T12:32:46.487Z,75.12
2024-03-10T12:33:51.135Z,75.06
2024-03-10T12:34:53.094Z,75.19
2024-03-10T12:35:54.707Z,74.46
2024-03-10T12:36:57.578Z,74.98
2024-03-10T12:37:59.519Z,75.12
2024-03-10T12:39:01.214Z,75.02
2024-03-10T12:40:05.383Z,75.51
2024-03-10T12:41:08.176Z,75.05
2024-03-10T12:42:09.837Z,75.68
2024-03-10T12:43:12.194Z,75.61
2024-03-10T12:44:14.382Z,75.59
2024-03-10T12:45:19.017Z,75.65
2024-03-10T12:46:20.673Z,75.27
2024-03-10T12:47:22.408Z,74.59
2024-03-10T12:48:24.943Z,74.55
2024-03-10T12:49:27.641Z,75.25
2024-03-10T12:50:29.312Z,73.63
2024-03-10T12:51:33.326Z,74.51
2024-03-10T12:52:35.557Z,74.73
2024-03-10T12:53:39.407Z,74.40
2024-03-10T12:54:41.740Z,74.21
2024-03-10T12:55:43.340Z,73.73
2024-03-10T12:56:45.176Z,73.94
2024-03-10T12:57:46.839Z,73.66
2024-03-10T12:58:48.476Z,73.61
2024-03-10T12:59:50.065Z,73.54
2024-03-10T13:00:53.277Z,73.35
2024-03-10T13:01:55.204Z,73.50
2024-03-10T13:02:57.804Z,73.95
2024-03-10T13:03:59.445Z,74.06
2024-03-10T13:05:01.083Z,73.76
2024-03-10T13:06:04.071Z,73.88
2024-03-10T13:07:06.127Z,74.22
2024-03-10T13:08:10.654Z,73.99
2024-03-10T13:09:12.407Z,74.51
2024-03-10T13:10:15.788Z,74.49
2024-03-10T13:11:18.739Z,74.44
2024-03-10T13:12:20.495Z,74.22
2024-03-10T13:13:22.183Z,73.84
2024-03-10T13:14:23.919Z,74.13
2024-03-10T13:15:25.813Z,73.65
2024-03-10T13:16:28.761Z,74.67
2024-03-10T13:17:30.497Z,74.31
2024-03-10T13:18:32.231Z,74.54
2024-03-10T13:19:34.186Z,74.00
2024-03-10T13:20:38.087Z,74.76
2024-03-10T13:21:41.059Z,74.13
2024-03-10T13:22:44.288Z,74.11
2024-03-10T13:23:46.625Z,74.04